Time;durP1;ratioP1;P1;durP2;ratioP2;P2;SDS_P1;SDS_P2;PMS_P1;PMS_P2;Temp;Humidity;BMP_temperature;BMP_pressure;BME280_temperature;BME280_humidity;BME280_pressure;Samples;Min_cycle;Max_cycle;Signal;HPM_P1;HPM_P2
2022/05/17 00:01:46;;;;;;;6.83;4.87;;;;;;;16.25;86.85;101889.19;5031420;28;20194;-72
2022/05/17 00:04:11;;;;;;;12.83;5.80;;;;;;;16.28;87.14;101886.63;5030557;28;20186;-72
2022/05/17 00:06:36;;;;;;;9.97;5.43;;;;;;;16.26;87.24;101884.00;5031476;28;20186;-72
2022/05/17 00:09:02;;;;;;;11.67;5.23;;;;;;;16.31;87.77;101881.50;5030977;28;20193;-73
2022/05/17 00:11:28;;;;;;;13.00;5.80;;;;;;;16.21;87.72;101870.16;5029705;28;20207;-72
2022/05/17 00:13:54;;;;;;;6.87;5.70;;;;;;;16.23;88.73;101876.25;5031173;28;20194;-72
2022/05/17 00:16:19;;;;;;;11.90;6.30;;;;;;;16.26;88.94;101870.25;5030897;28;20208;-72
2022/05/17 00:18:45;;;;;;;11.50;6.60;;;;;;;16.32;89.14;101867.72;5030914;28;20206;-72
2022/05/17 00:21:11;;;;;;;8.33;5.87;;;;;;;16.36;88.63;101860.03;5030902;28;20230;-72
2022/05/17 00:23:36;;;;;;;10.47;6.13;;;;;;;16.40;88.50;101864.41;5029787;28;20182;-72
2022/05/17 00:26:03;;;;;;;8.17;5.70;;;;;;;16.36;88.66;101867.78;5030545;28;20207;-72
2022/05/17 00:28:28;;;;;;;10.27;6.87;;;;;;;16.27;90.07;101870.25;5029820;28;20194;-72
2022/05/17 00:30:54;;;;;;;8.87;6.57;;;;;;;16.22;90.67;101866.75;5029623;28;20241;-72
2022/05/17 00:33:21;;;;;;;12.13;6.77;;;;;;;16.26;90.58;101865.06;5030555;28;20191;-72
2022/05/17 00:35:47;;;;;;;12.60;6.80;;;;;;;16.27;90.08;101865.09;5030830;28;20210;-72
2022/05/17 00:38:14;;;;;;;12.53;7.43;;;;;;;16.28;90.38;101874.59;5030299;28;20182;-72
2022/05/17 00:40:40;;;;;;;9.90;7.50;;;;;;;16.29;91.22;101881.47;5030605;28;20181;-72
2022/05/17 00:43:09;;;;;;;11.33;7.63;;;;;;;16.30;90.66;101872.03;5030126;28;20191;-72
2022/05/17 00:45:39;;;;;;;11.60;8.03;;;;;;;16.25;91.02;101860.75;5028807;28;20276;-71
2022/05/17 00:48:04;;;;;;;11.27;7.47;;;;;;;16.20;90.99;101858.09;5030239;28;20195;-72
2022/05/17 00:50:40;;;;;;;10.37;7.27;;;;;;;16.19;91.42;101868.41;5024857;28;20214;-72
2022/05/17 00:53:10;;;;;;;11.77;7.40;;;;;;;16.14;91.05;101870.94;5024865;28;20223;-71
2022/05/17 00:55:45;;;;;;;13.13;7.10;;;;;;;16.09;91.16;101882.06;5031311;28;20206;-72
2022/05/17 00:58:21;;;;;;;12.63;6.53;;;;;;;16.03;90.97;101877.66;5023148;28;20221;-72
2022/05/17 01:00:50;;;;;;;8.90;6.43;;;;;;;15.99;91.14;101873.34;5029186;28;20206;-72
2022/05/17 01:03:19;;;;;;;8.70;6.33;;;;;;;15.93;91.64;101873.22;5019567;28;20195;-71
2022/05/17 01:05:49;;;;;;;9.10;6.57;;;;;;;15.89;91.23;101876.59;5019560;28;20218;-71
2022/05/17 01:08:16;;;;;;;11.10;6.93;;;;;;;15.82;91.06;101867.06;5009525;28;20199;-72
2022/05/17 01:10:42;;;;;;;8.23;6.20;;;;;;;15.79;90.36;101864.41;5036092;28;20220;-71
2022/05/17 01:15:51;;;;;;;12.90;6.27;;;;;;;15.66;90.79;101870.22;5029671;28;20210;-72
2022/05/17 01:18:17;;;;;;;11.10;6.20;;;;;;;15.69;90.22;101872.00;5029540;28;20663;-72
2022/05/17 01:20:43;;;;;;;8.57;5.60;;;;;;;15.75;88.97;101872.09;5044696;28;20224;-72
2022/05/17 01:23:09;;;;;;;9.60;5.80;;;;;;;15.78;88.24;101869.53;5041921;28;20701;-72
2022/05/17 01:25:34;;;;;;;11.53;5.27;;;;;;;15.73;87.40;101871.19;5011797;28;20217;-72
2022/05/17 01:28:20;;;;;;;9.03;5.10;;;;;;;15.61;87.11;101879.63;5029443;28;20194;-72
2022/05/17 01:30:46;;;;;;;8.13;5.00;;;;;;;15.60;87.50;101887.34;5028886;28;20233;-72
2022/05/17 01:33:17;;;;;;;9.73;5.03;;;;;;;15.56;87.21;101883.84;5029246;28;20225;-72
2022/05/17 01:35:43;;;;;;;8.83;5.67;;;;;;;15.54;87.90;101876.94;5029686;28;20607;-72
2022/05/17 01:38:09;;;;;;;8.23;5.33;;;;;;;15.53;87.97;101881.25;5028300;28;20198;-72
2022/05/17 01:40:35;;;;;;;9.23;4.87;;;;;;;15.55;86.60;101882.13;5018683;28;20191;-72
2022/05/17 01:43:00;;;;;;;10.50;5.70;;;;;;;15.49;87.10;101888.91;5008562;28;20636;-72
2022/05/17 01:45:26;;;;;;;7.43;4.63;;;;;;;15.49;87.21;101888.91;5009161;28;20210;-72
2022/05/17 01:47:51;;;;;;;7.63;4.97;;;;;;;15.46;87.18;101888.84;5009917;28;20194;-72
2022/05/17 01:50:17;;;;;;;8.13;4.80;;;;;;;15.48;86.56;101884.59;5006671;28;20708;-72
2022/05/17 01:52:44;;;;;;;8.10;5.53;;;;;;;15.40;87.32;101889.63;5038121;28;20663;-72
2022/05/17 01:55:10;;;;;;;7.83;5.20;;;;;;;15.33;87.97;101895.47;5044824;28;20753;-72
2022/05/17 01:57:35;;;;;;;10.37;5.97;;;;;;;15.31;88.20;101898.88;5038192;28;20201;-71
2022/05/17 02:00:00;;;;;;;12.93;6.27;;;;;;;15.27;88.04;101900.53;5029249;28;20193;-72
2022/05/17 02:02:26;;;;;;;9.23;5.73;;;;;;;15.32;88.49;101898.03;5028764;28;20209;-72
2022/05/17 02:04:51;;;;;;;8.83;5.43;;;;;;;15.32;88.02;101900.59;5022953;28;20218;-72
2022/05/17 02:07:16;;;;;;;6.97;5.63;;;;;;;15.31;87.43;101904.91;5027760;28;20193;-72
2022/05/17 02:09:42;;;;;;;7.93;5.30;;;;;;;15.35;86.57;101893.84;5029362;28;20229;-72
2022/05/17 02:12:08;;;;;;;9.87;5.23;;;;;;;15.40;86.28;101897.38;5027561;28;20209;-72
2022/05/17 02:14:33;;;;;;;11.77;4.87;;;;;;;15.31;86.20;101894.59;5019114;28;20215;-72
2022/05/17 02:17:00;;;;;;;8.07;5.07;;;;;;;15.31;86.49;101883.41;5009469;28;20649;-72
2022/05/17 02:19:25;;;;;;;7.93;4.90;;;;;;;15.30;87.13;101892.00;5008997;28;20194;-71
2022/05/17 02:21:51;;;;;;;8.10;4.97;;;;;;;15.27;87.25;101894.50;5009455;28;20195;-71
2022/05/17 02:24:16;;;;;;;9.37;5.43;;;;;;;15.20;87.97;101890.94;5008829;28;20199;-72
2022/05/17 02:26:42;;;;;;;9.50;5.90;;;;;;;15.13;88.36;101891.69;5009555;28;20184;-72
2022/05/17 02:29:08;;;;;;;7.80;5.47;;;;;;;15.17;87.79;101890.03;5008904;28;20191;-72
2022/05/17 02:31:34;;;;;;;8.43;5.20;;;;;;;15.18;87.54;101889.19;5010141;28;20258;-72
2022/05/17 02:33:59;;;;;;;7.07;4.83;;;;;;;15.15;87.44;101886.56;5008851;28;20187;-72
2022/05/17 02:36:25;;;;;;;6.93;4.87;;;;;;;15.11;87.33;101890.78;5009186;28;20186;-71
2022/05/17 02:38:50;;;;;;;8.80;5.07;;;;;;;15.11;88.17;101895.09;5009366;28;20218;-72
2022/05/17 02:41:18;;;;;;;8.40;5.90;;;;;;;15.09;88.43;101895.06;5010237;28;20195;-72
2022/05/17 02:43:45;;;;;;;7.43;5.10;;;;;;;15.02;89.60;101898.38;5012859;28;20308;-72
2022/05/17 02:46:10;;;;;;;8.87;5.20;;;;;;;15.06;89.05;101891.56;5012318;28;20223;-72
2022/05/17 02:48:36;;;;;;;10.07;6.17;;;;;;;15.08;89.73;101895.91;5021076;28;20305;-72
2022/05/17 02:51:13;;;;;;;9.87;6.00;;;;;;;15.08;90.16;101890.75;5032273;28;20218;-72
2022/05/17 02:53:38;;;;;;;8.73;5.77;;;;;;;15.04;90.42;101896.69;5032748;28;20198;-72
2022/05/17 02:56:05;;;;;;;8.17;5.97;;;;;;;14.95;91.41;101896.53;5032293;28;20305;-72
2022/05/17 02:58:30;;;;;;;10.57;5.30;;;;;;;14.97;90.83;101894.81;5032156;28;20690;-72
2022/05/17 03:00:55;;;;;;;9.10;5.67;;;;;;;15.02;90.52;101885.50;5032740;28;20185;-72
2022/05/17 03:03:21;;;;;;;6.80;5.50;;;;;;;15.09;89.63;101889.03;5027460;28;20194;-72
2022/05/17 03:05:46;;;;;;;8.43;5.90;;;;;;;15.07;90.23;101889.03;5021686;28;20198;-71
2022/05/17 03:08:12;;;;;;;14.20;6.10;;;;;;;15.08;90.25;101889.88;5032161;28;20175;-72
2022/05/17 03:10:37;;;;;;;9.07;5.97;;;;;;;15.05;91.33;101889.84;5032108;28;20206;-72
2022/05/17 03:13:03;;;;;;;8.13;5.40;;;;;;;15.03;90.51;101894.06;5031993;28;20183;-72
2022/05/17 03:15:28;;;;;;;9.17;6.10;;;;;;;14.99;90.38;101893.16;5031907;28;20225;-72
2022/05/17 03:17:53;;;;;;;9.57;6.00;;;;;;;14.90;91.20;101894.69;5032306;28;20558;-72
2022/05/17 03:20:19;;;;;;;10.03;6.77;;;;;;;14.87;90.68;101897.22;5031703;28;20232;-72
2022/05/17 03:22:45;;;;;;;8.80;6.87;;;;;;;14.87;90.08;101903.25;5022354;28;20218;-72
2022/05/17 03:25:10;;;;;;;10.17;6.07;;;;;;;14.85;90.45;101904.06;5011568;28;20298;-72
2022/05/17 03:27:36;;;;;;;9.47;6.37;;;;;;;14.85;90.57;101904.06;5013469;28;20183;-72
2022/05/17 03:30:03;;;;;;;10.83;6.00;;;;;;;14.81;90.30;101903.13;5030501;28;20210;-72
2022/05/17 03:32:28;;;;;;;9.27;6.33;;;;;;;14.85;89.64;101901.47;5031505;28;20198;-72
2022/05/17 03:34:54;;;;;;;10.13;6.60;;;;;;;14.81;90.51;101907.41;5028726;28;20714;-72
2022/05/17 03:37:19;;;;;;;9.70;6.03;;;;;;;14.79;90.67;101911.69;5031786;28;20191;-72
2022/05/17 03:39:45;;;;;;;9.30;6.97;;;;;;;14.79;90.53;101909.09;5041787;28;20181;-72
2022/05/17 03:42:13;;;;;;;12.23;7.00;;;;;;;14.79;91.15;101922.00;5034892;28;20186;-72
2022/05/17 03:44:40;;;;;;;10.83;7.17;;;;;;;14.70;90.60;101914.97;5041404;28;20202;-72
2022/05/17 03:47:07;;;;;;;10.77;7.03;;;;;;;14.75;90.47;101923.66;5042595;28;20183;-72
2022/05/17 03:49:33;;;;;;;12.07;7.33;;;;;;;14.78;90.71;101926.28;5046693;28;20244;-72
2022/05/17 03:51:59;;;;;;;10.93;6.70;;;;;;;14.77;91.05;101931.38;5029460;28;20205;-72
2022/05/17 03:54:25;;;;;;;9.03;6.60;;;;;;;14.79;90.58;101924.56;5027000;28;20214;-72
2022/05/17 03:56:51;;;;;;;8.40;6.13;;;;;;;14.69;90.23;101923.50;5043604;28;20244;-72
2022/05/17 03:59:16;;;;;;;9.20;6.40;;;;;;;14.68;90.24;101931.25;5047190;28;20202;-72
2022/05/17 04:01:42;;;;;;;6.77;6.03;;;;;;;14.72;90.41;101933.00;5028451;28;20178;-72
2022/05/17 04:04:07;;;;;;;11.80;6.83;;;;;;;14.70;90.95;101934.69;5016398;28;20567;-72
2022/05/17 04:06:33;;;;;;;9.20;6.80;;;;;;;14.73;90.83;101939.94;5027655;28;20273;-72
2022/05/17 04:08:58;;;;;;;12.10;5.93;;;;;;;14.75;90.27;101936.53;5032837;28;20197;-72
2022/05/17 04:11:24;;;;;;;9.00;6.20;;;;;;;14.74;90.75;101931.34;5024218;28;20298;-72
2022/05/17 04:13:49;;;;;;;7.23;6.37;;;;;;;14.70;90.95;101940.75;5029474;28;20294;-72
2022/05/17 04:16:14;;;;;;;9.63;6.60;;;;;;;14.71;91.29;101933.84;5027592;28;20242;-72
2022/05/17 04:18:40;;;;;;;9.53;6.20;;;;;;;14.71;91.02;101942.47;5036635;28;20182;-72
2022/05/17 04:21:05;;;;;;;10.00;6.63;;;;;;;14.76;91.23;101943.44;5047721;28;20217;-71
2022/05/17 04:23:31;;;;;;;11.50;6.20;;;;;;;14.73;90.46;101942.50;5035292;28;20660;-72
2022/05/17 04:25:57;;;;;;;8.43;6.30;;;;;;;14.64;90.98;101940.59;5033815;28;20202;-72
2022/05/17 04:28:23;;;;;;;10.60;6.47;;;;;;;14.72;90.53;101940.75;5028822;28;20198;-72
2022/05/17 04:30:49;;;;;;;10.17;7.43;;;;;;;14.77;90.74;101941.72;5040264;28;20209;-72
2022/05/17 04:33:14;;;;;;;11.70;6.97;;;;;;;14.75;90.58;101944.28;5038941;28;20190;-71
2022/05/17 04:35:41;;;;;;;9.93;7.73;;;;;;;14.73;90.81;101943.38;5049594;28;20220;-73
2022/05/17 04:38:07;;;;;;;10.63;7.70;;;;;;;14.79;90.37;101937.47;5036542;28;20198;-72
2022/05/17 04:40:34;;;;;;;9.10;7.83;;;;;;;14.78;91.11;101944.31;5036142;28;20324;-71
2022/05/17 04:42:59;;;;;;;10.70;7.60;;;;;;;14.77;91.05;101944.28;5026237;28;20825;-72
2022/05/17 04:45:25;;;;;;;9.87;6.70;;;;;;;14.80;91.03;101945.25;5030423;28;20210;-72
2022/05/17 04:47:50;;;;;;;10.80;7.37;;;;;;;14.81;91.85;101941.81;5025634;28;20345;-72
2022/05/17 04:50:17;;;;;;;13.90;7.50;;;;;;;14.67;91.90;101938.09;5024984;28;20840;-72
2022/05/17 04:52:43;;;;;;;9.90;7.33;;;;;;;14.59;92.41;101933.63;5028275;28;20186;-72
2022/05/17 04:55:11;;;;;;;11.40;7.83;;;;;;;14.65;91.81;101942.31;5029704;28;20222;-72
2022/05/17 04:57:37;;;;;;;12.60;7.73;;;;;;;14.72;92.04;101933.88;5030368;28;20193;-72
2022/05/17 05:00:10;;;;;;;9.57;7.27;;;;;;;14.69;92.26;101940.72;5029753;28;20261;-72
2022/05/17 05:02:35;;;;;;;12.07;8.33;;;;;;;14.70;92.78;101939.84;5028836;28;20194;-71
2022/05/17 05:05:01;;;;;;;12.70;7.37;;;;;;;14.76;92.61;101945.13;5015092;28;20234;-72
2022/05/17 05:07:27;;;;;;;10.73;7.63;;;;;;;14.77;91.90;101946.88;5015569;28;20182;-72
2022/05/17 05:09:52;;;;;;;14.80;8.07;;;;;;;14.74;92.29;101951.97;5030104;28;20217;-72
2022/05/17 05:12:17;;;;;;;10.60;7.17;;;;;;;14.79;92.34;101960.69;5029730;28;20553;-72
2022/05/17 05:14:43;;;;;;;10.50;7.60;;;;;;;14.78;92.57;101959.78;5029874;28;20619;-72
2022/05/17 05:17:09;;;;;;;8.93;7.17;;;;;;;14.83;92.81;101965.06;5029634;28;20674;-72
2022/05/17 05:19:35;;;;;;;13.07;7.40;;;;;;;14.85;92.96;101969.41;5030011;28;20209;-72
2022/05/17 05:22:00;;;;;;;11.63;7.63;;;;;;;14.86;92.02;101967.69;5028660;28;20652;-72
2022/05/17 05:24:26;;;;;;;13.43;7.87;;;;;;;14.81;92.60;101970.19;5029804;28;20300;-73
2022/05/17 05:26:51;;;;;;;10.77;7.37;;;;;;;14.80;92.46;101965.88;5026675;28;20182;-72
2022/05/17 05:29:17;;;;;;;10.83;7.70;;;;;;;14.83;92.63;101971.06;5025255;28;20248;-73
2022/05/17 05:31:42;;;;;;;9.40;7.77;;;;;;;14.86;93.28;101968.56;5036496;28;20220;-72
2022/05/17 05:34:08;;;;;;;15.53;8.67;;;;;;;14.82;93.14;101966.75;5029365;28;20189;-72
2022/05/17 05:36:33;;;;;;;14.33;8.87;;;;;;;14.82;93.55;101971.06;5044675;28;20200;-72
2022/05/17 05:38:58;;;;;;;10.57;9.03;;;;;;;14.77;94.66;101972.66;5012566;28;20206;-72
2022/05/17 05:41:23;;;;;;;12.40;8.30;;;;;;;14.81;93.89;101974.47;5026563;28;20183;-72
2022/05/17 05:43:49;;;;;;;9.97;8.30;;;;;;;14.83;94.06;101983.97;5023732;28;20189;-72
2022/05/17 05:46:16;;;;;;;14.57;9.30;;;;;;;14.85;94.07;101978.84;5025804;28;20206;-72
2022/05/17 05:48:42;;;;;;;12.77;8.83;;;;;;;14.90;93.63;101985.84;5035467;28;20698;-71
2022/05/17 05:51:08;;;;;;;10.23;8.30;;;;;;;14.97;93.82;101984.25;5029137;28;20218;-72
2022/05/17 05:53:33;;;;;;;14.13;9.10;;;;;;;14.99;93.49;101982.56;5027095;28;20259;-74
2022/05/17 05:56:01;;;;;;;13.83;8.00;;;;;;;15.06;93.69;101984.44;5030906;28;20593;-72
2022/05/17 05:58:35;;;;;;;13.43;8.40;;;;;;;15.09;93.74;101980.19;5039021;28;20217;-72
2022/05/17 06:01:01;;;;;;;10.43;8.63;;;;;;;15.12;93.43;101987.13;5046521;28;20186;-72
2022/05/17 06:03:27;;;;;;;13.77;9.43;;;;;;;15.10;94.16;101981.09;5030383;28;20199;-72
2022/05/17 06:05:53;;;;;;;14.03;9.27;;;;;;;15.11;93.85;101987.97;5026463;28;20210;-71
2022/05/17 06:08:19;;;;;;;14.17;9.10;;;;;;;15.10;93.18;101983.66;5040966;28;20674;-72
2022/05/17 06:10:45;;;;;;;11.80;8.80;;;;;;;15.14;92.82;101983.75;5025414;28;20238;-72
2022/05/17 06:13:13;;;;;;;12.70;8.80;;;;;;;15.17;92.92;101991.56;5025979;28;20202;-72
2022/05/17 06:15:39;;;;;;;12.93;9.67;;;;;;;15.19;92.83;101983.84;5013182;28;20699;-72
2022/05/17 06:18:05;;;;;;;12.83;9.60;;;;;;;15.17;94.26;101991.56;5028919;28;20247;-72
2022/05/17 06:20:31;;;;;;;12.20;9.27;;;;;;;15.16;94.02;101989.81;5042008;28;20182;-72
2022/05/17 06:22:56;;;;;;;9.80;8.80;;;;;;;15.17;93.98;101988.09;5040362;28;20198;-72
2022/05/17 06:25:22;;;;;;;13.47;9.53;;;;;;;15.18;94.75;101993.28;5034294;28;20232;-72
2022/05/17 06:27:47;;;;;;;14.90;10.10;;;;;;;15.17;94.05;101996.72;5041489;28;20644;-72
2022/05/17 06:30:14;;;;;;;13.97;9.87;;;;;;;15.17;93.94;101994.13;5032072;28;20210;-72
2022/05/17 06:32:40;;;;;;;13.47;9.57;;;;;;;15.17;94.19;102001.88;5033013;28;20197;-72
2022/05/17 06:35:06;;;;;;;11.43;9.27;;;;;;;15.19;94.96;102001.91;5051977;28;20214;-72
2022/05/17 06:37:32;;;;;;;12.60;9.77;;;;;;;15.18;94.39;101998.44;5046526;28;20182;-72
2022/05/17 06:39:58;;;;;;;13.07;9.97;;;;;;;15.20;94.42;101999.31;5032725;28;20193;-73
2022/05/17 06:42:24;;;;;;;14.73;10.60;;;;;;;15.25;94.02;102002.91;5037782;28;20229;-72
2022/05/17 06:44:49;;;;;;;12.77;11.43;;;;;;;15.23;94.49;101993.34;5015133;28;20210;-72
2022/05/17 06:47:14;;;;;;;13.80;11.30;;;;;;;15.32;94.92;102001.28;5032584;28;20194;-72
2022/05/17 06:49:40;;;;;;;16.50;11.23;;;;;;;15.36;94.23;101996.25;5032881;28;20198;-73
2022/05/17 06:52:08;;;;;;;14.57;11.23;;;;;;;15.40;94.13;102007.50;5032452;28;20218;-72
2022/05/17 06:54:34;;;;;;;17.43;11.60;;;;;;;15.38;94.70;102007.44;5032616;28;20249;-73
2022/05/17 06:57:10;;;;;;;15.10;10.93;;;;;;;15.38;94.64;102009.19;5031021;28;20186;-72
2022/05/17 06:59:39;;;;;;;15.03;11.07;;;;;;;15.39;94.81;102003.16;5032762;28;20194;-72
2022/05/17 07:02:05;;;;;;;14.60;11.17;;;;;;;15.38;94.58;102010.03;5030852;28;20630;-72
2022/05/17 07:04:31;;;;;;;15.13;11.47;;;;;;;15.38;95.28;102017.78;5030927;28;20211;-72
2022/05/17 07:06:58;;;;;;;16.67;11.67;;;;;;;15.43;94.73;102017.88;5032550;28;20183;-72
2022/05/17 07:09:25;;;;;;;14.33;10.20;;;;;;;15.43;94.81;102018.72;5031512;28;20190;-72
2022/05/17 07:14:37;;;;;;;16.33;12.30;;;;;;;15.48;95.11;102022.25;5031914;28;20559;-73
2022/05/17 07:17:14;;;;;;;14.97;11.70;;;;;;;15.45;95.77;102022.22;5032400;28;20182;-74
2022/05/17 07:19:39;;;;;;;14.60;13.10;;;;;;;15.44;95.72;102032.53;5031451;28;20593;-73
2022/05/17 07:22:06;;;;;;;18.67;13.37;;;;;;;15.43;95.97;102018.72;5031835;28;20178;-72
2022/05/17 07:24:32;;;;;;;14.33;12.07;;;;;;;15.44;95.71;102022.19;5030251;28;20284;-72
2022/05/17 07:27:01;;;;;;;15.57;13.00;;;;;;;15.49;96.25;102026.63;5031753;28;20182;-72
2022/05/17 07:29:27;;;;;;;19.00;14.43;;;;;;;15.56;96.34;102027.59;5028922;28;20313;-72
2022/05/17 07:31:53;;;;;;;14.80;13.17;;;;;;;15.67;95.23;102026.06;5014225;28;20265;-72
2022/05/17 07:34:18;;;;;;;13.37;11.87;;;;;;;15.79;94.83;102031.47;5029946;28;20754;-72
2022/05/17 07:36:44;;;;;;;16.03;12.20;;;;;;;15.85;94.50;102029.84;5030644;28;20236;-72
2022/05/17 07:39:11;;;;;;;14.23;12.23;;;;;;;15.88;94.43;102032.47;5031392;28;20582;-73
2022/05/17 07:41:36;;;;;;;13.50;11.73;;;;;;;15.95;93.99;102036.91;5031123;28;20758;-72
2022/05/17 07:44:03;;;;;;;13.50;12.10;;;;;;;15.99;94.19;102035.22;5031548;28;20183;-72
2022/05/17 07:46:28;;;;;;;18.20;12.90;;;;;;;15.98;93.59;102038.66;5031575;28;20198;-72
2022/05/17 07:48:54;;;;;;;13.10;11.80;;;;;;;16.00;93.83;102039.56;5031167;28;20293;-72
2022/05/17 07:51:19;;;;;;;14.70;13.03;;;;;;;15.95;94.37;102044.66;5031575;28;20202;-72
2022/05/17 07:53:46;;;;;;;13.33;12.00;;;;;;;16.04;94.59;102041.34;5031064;28;20186;-72
2022/05/17 07:56:14;;;;;;;16.23;13.27;;;;;;;16.12;93.47;102040.63;5031489;28;20209;-72
2022/05/17 07:58:41;;;;;;;15.77;14.03;;;;;;;16.23;93.82;102044.25;5031272;28;20626;-71
2022/05/17 08:01:06;;;;;;;18.53;14.57;;;;;;;16.16;93.77;102044.13;5031644;28;20174;-72
2022/05/17 08:03:31;;;;;;;17.13;14.53;;;;;;;16.08;94.82;102053.47;5030017;28;20209;-71
2022/05/17 08:05:57;;;;;;;18.63;15.73;;;;;;;16.06;95.29;102050.88;5030818;28;20207;-72
2022/05/17 08:08:22;;;;;;;17.13;14.63;;;;;;;16.09;95.49;102058.69;5031233;28;20186;-72
2022/05/17 08:10:48;;;;;;;19.33;16.27;;;;;;;16.18;94.82;102057.94;5027006;28;20223;-73
2022/05/17 08:13:15;;;;;;;21.60;16.73;;;;;;;16.16;95.00;102057.91;5011155;28;20222;-73
2022/05/17 08:15:40;;;;;;;18.00;16.10;;;;;;;16.18;94.29;102052.78;5010919;28;20214;-74
2022/05/17 08:18:06;;;;;;;20.40;17.33;;;;;;;16.23;95.21;102058.88;4993664;28;20245;-72
2022/05/17 08:20:32;;;;;;;18.70;16.53;;;;;;;16.41;94.92;102054.91;5030298;28;20766;-72
2022/05/17 08:22:58;;;;;;;18.47;16.17;;;;;;;16.64;94.53;102057.81;5029945;28;20597;-72
2022/05/17 08:28:09;;;;;;;18.10;16.13;;;;;;;16.98;92.27;102050.53;5027912;28;20781;-72
2022/05/17 08:30:36;;;;;;;19.83;16.70;;;;;;;17.25;91.52;102057.78;5017762;28;20248;-73
2022/05/17 08:33:17;;;;;;;18.07;16.17;;;;;;;17.48;90.32;102062.41;5029516;28;20275;-72
2022/05/17 08:36:07;;;;;;;20.30;17.63;;;;;;;17.55;89.53;102068.53;5028883;28;20718;-73
2022/05/17 08:38:40;;;;;;;20.00;17.30;;;;;;;17.56;89.56;102065.06;5029560;28;20193;-73
2022/05/17 08:41:21;;;;;;;19.07;17.00;;;;;;;17.59;89.23;102078.06;5030094;28;20209;-72
2022/05/17 08:43:52;;;;;;;19.03;17.07;;;;;;;17.74;89.34;102073.88;5030169;28;20178;-72
2022/05/17 08:46:23;;;;;;;18.97;16.97;;;;;;;17.82;87.87;102076.56;5029279;28;20225;-73
2022/05/17 08:49:09;;;;;;;17.80;15.97;;;;;;;18.03;87.03;102077.63;5029865;28;20202;-72
2022/05/17 08:51:51;;;;;;;15.53;13.87;;;;;;;18.25;86.00;102071.78;5028176;28;20660;-73
2022/05/17 08:54:22;;;;;;;16.40;14.70;;;;;;;18.40;85.61;102077.13;5029817;28;20202;-73
2022/05/17 08:56:55;;;;;;;17.83;16.13;;;;;;;18.65;87.15;102078.16;5029360;28;20181;-73
2022/05/17 08:59:23;;;;;;;18.17;16.47;;;;;;;18.62;86.89;102080.72;5028367;28;20198;-73
2022/05/17 09:02:10;;;;;;;16.70;15.00;;;;;;;18.43;86.05;102084.91;5029313;28;20708;-72
2022/05/17 09:05:01;;;;;;;17.23;15.50;;;;;;;18.40;85.63;102076.22;5029650;28;20229;-73
2022/05/17 09:07:32;;;;;;;18.20;14.90;;;;;;;18.30;86.68;102077.00;5018831;28;20199;-73
2022/05/17 09:10:22;;;;;;;16.97;15.03;;;;;;;18.25;85.17;102081.28;5028272;28;20218;-73
2022/05/17 09:13:14;;;;;;;16.30;14.70;;;;;;;18.73;84.57;102079.03;5029630;28;20241;-72
2022/05/17 09:15:40;;;;;;;17.53;14.97;;;;;;;20.01;79.68;102070.88;5027829;28;20308;-73
2022/05/17 09:18:12;;;;;;;16.63;15.03;;;;;;;20.90;75.76;102073.41;5029626;28;20214;-73
2022/05/17 09:20:38;;;;;;;15.77;14.17;;;;;;;21.53;75.55;102074.03;5028765;28;20305;-73
2022/05/17 09:23:04;;;;;;;17.43;15.63;;;;;;;22.04;72.85;102080.66;5027377;28;20196;-73
2022/05/17 09:25:49;;;;;;;14.87;13.47;;;;;;;21.81;74.18;102075.63;5031615;28;20217;-73
2022/05/17 09:28:20;;;;;;;13.10;11.90;;;;;;;21.66;74.40;102072.19;5028218;28;20610;-73
2022/05/17 09:30:47;;;;;;;11.93;10.73;;;;;;;21.53;71.77;102070.53;5015298;28;20336;-73
2022/05/17 09:33:19;;;;;;;11.60;10.43;;;;;;;22.01;71.01;102073.72;5028882;28;20285;-73
2022/05/17 09:36:03;;;;;;;12.10;10.90;;;;;;;22.19;71.30;102073.56;5028647;28;20214;-73
2022/05/17 09:38:30;;;;;;;10.73;9.77;;;;;;;23.02;67.62;102071.91;5027755;28;20194;-73
2022/05/17 09:40:57;;;;;;;10.73;9.83;;;;;;;23.64;66.97;102072.84;5029162;28;20182;-73
2022/05/17 09:43:37;;;;;;;9.63;8.63;;;;;;;23.71;63.66;102074.47;5028552;28;20888;-73
2022/05/17 09:46:11;;;;;;;7.53;6.70;;;;;;;24.28;62.96;102063.13;5027547;28;20325;-73
2022/05/17 09:54:47;;;;;;;6.65;5.93;;;;;;;23.26;62.98;102069.88;5027600;28;20285;-73
2022/05/17 09:57:30;;;;;;;7.37;5.53;;;;;;;22.42;67.45;102077.72;5028903;28;20209;-72
2022/05/17 10:00:13;;;;;;;6.70;6.10;;;;;;;22.34;70.00;102083.03;5028504;28;20177;-73
2022/05/17 10:02:51;;;;;;;7.03;6.27;;;;;;;22.95;66.93;102081.56;5029044;28;20170;-73
2022/05/17 10:05:47;;;;;;;6.70;6.10;;;;;;;23.32;65.85;102082.88;5027795;28;20208;-73
2022/05/17 10:08:12;;;;;;;7.30;6.27;;;;;;;22.97;66.74;102085.00;5028470;28;20289;-73
2022/05/17 10:10:43;;;;;;;6.10;5.50;;;;;;;22.74;65.91;102083.53;5028121;28;20240;-73
2022/05/17 10:13:30;;;;;;;6.27;5.67;;;;;;;22.29;68.75;102085.66;5027922;28;20312;-73
2022/05/17 10:16:11;;;;;;;4.27;3.87;;;;;;;22.05;67.65;102085.88;5021690;28;20214;-73
2022/05/17 10:18:45;;;;;;;4.70;4.30;;;;;;;21.82;67.96;102079.94;5028814;28;20178;-73
2022/05/17 10:21:23;;;;;;;4.73;4.20;;;;;;;21.73;70.94;102081.72;5028767;28;20185;-73
2022/05/17 10:24:10;;;;;;;5.77;5.03;;;;;;;21.65;70.97;102084.38;5028459;28;20201;-73
2022/05/17 10:26:43;;;;;;;4.43;4.03;;;;;;;21.31;70.75;102087.16;5027433;28;20539;-73
2022/05/17 10:29:12;;;;;;;5.30;4.80;;;;;;;21.19;71.87;102090.69;5007321;28;20198;-73
2022/05/17 10:31:50;;;;;;;5.27;4.80;;;;;;;20.95;72.58;102089.88;5008679;28;20357;-73
2022/05/17 10:34:29;;;;;;;5.30;4.57;;;;;;;20.87;72.72;102089.88;5008249;28;20183;-73
2022/05/17 10:36:59;;;;;;;5.63;5.03;;;;;;;20.93;74.07;102091.66;5007460;28;20344;-73
2022/05/17 10:39:28;;;;;;;5.20;4.70;;;;;;;21.08;73.19;102095.06;5008372;28;20270;-73
2022/05/17 10:41:54;;;;;;;5.90;5.17;;;;;;;21.22;74.16;102097.63;5008829;28;20179;-73
2022/05/17 10:44:22;;;;;;;5.40;4.90;;;;;;;21.06;71.90;102093.34;5016397;28;20209;-73
2022/05/17 10:46:54;;;;;;;5.40;4.77;;;;;;;20.86;71.46;102102.94;5032239;28;20225;-72
2022/05/17 10:49:47;;;;;;;6.57;5.33;;;;;;;20.80;73.36;102095.13;5048355;28;20182;-73
2022/05/17 10:52:27;;;;;;;6.10;5.50;;;;;;;20.71;72.16;102095.13;5046500;28;20248;-73
2022/05/17 10:55:25;;;;;;;4.63;4.23;;;;;;;20.55;73.31;102101.25;5048399;28;20208;-73
2022/05/17 10:57:59;;;;;;;6.17;5.53;;;;;;;20.33;73.85;102107.31;5048039;28;20208;-73
2022/05/17 11:00:43;;;;;;;20.47;16.00;;;;;;;20.28;74.38;102104.75;5047565;28;20208;-73
2022/05/17 11:03:18;;;;;;;4.97;4.47;;;;;;;20.16;73.53;102104.72;5012861;28;20226;-72
2022/05/17 11:06:11;;;;;;;5.57;3.90;;;;;;;20.23;73.64;102106.44;5017880;28;20202;-72
2022/05/17 11:09:05;;;;;;;4.80;4.17;;;;;;;20.24;73.63;102108.22;5031536;28;20966;-73
2022/05/17 11:11:52;;;;;;;4.80;4.30;;;;;;;20.20;73.41;102106.47;5030807;28;20214;-74
2022/05/17 11:14:34;;;;;;;5.73;4.60;;;;;;;20.12;75.44;102112.50;5031519;28;20186;-74
2022/05/17 11:17:17;;;;;;;6.33;4.40;;;;;;;20.14;75.52;102119.47;5031631;28;20190;-73
2022/05/17 11:19:48;;;;;;;4.73;4.27;;;;;;;20.09;77.25;102115.13;5019665;28;20226;-73
2022/05/17 11:22:37;;;;;;;4.80;4.30;;;;;;;19.97;77.45;102115.06;5031523;28;20254;-73
2022/05/17 11:25:24;;;;;;;4.50;4.10;;;;;;;19.89;76.67;102111.56;5030998;28;20234;-73
2022/05/17 11:28:05;;;;;;;4.83;4.43;;;;;;;19.91;76.31;102112.47;5031916;28;20324;-73
2022/05/17 11:30:47;;;;;;;4.67;4.00;;;;;;;19.89;76.75;102115.06;5029726;28;20293;-73
2022/05/17 11:33:24;;;;;;;5.00;4.47;;;;;;;19.84;76.73;102116.78;5030280;28;20262;-74
2022/05/17 11:35:55;;;;;;;4.60;3.90;;;;;;;19.79;76.48;102117.63;5018570;28;20203;-72
2022/05/17 11:38:43;;;;;;;4.60;4.10;;;;;;;19.76;76.85;102123.69;5011353;28;20249;-73
2022/05/17 11:41:14;;;;;;;4.10;3.70;;;;;;;19.74;76.86;102130.63;5010138;28;20187;-72
2022/05/17 11:43:41;;;;;;;4.53;3.70;;;;;;;19.73;76.97;102125.44;5009654;28;20264;-72